Etusivu
METAR-TAF:

METAR-TAF

Lentoasemat :

Tripoli, Libya

Mitiga International Airport

Leveyspiiri: 32-54N, Pituuspiiri: 13-17E, korkeus merenpinnasta: 11 m

Tämänhetkinen sää

Tämä raportti tehtiin 44 minuuttia sitten, kello 10.50 UTC
Tuuli 11 kn idästä/koillisesta
Lämpötila 20°C
Kosteus 68%
Ilmanpaine 1021 hPa
Näkyvyys: 7000 m
Hajanaisia pilviä 2500 ft:n korkeudessa
Hajanaisia pilviä 7000 ft:n korkeudessa

METAR: HLLM 191050Z 06011KT 7000 SCT025 SCT070 20/14 Q1021

Aika: 13:34 (11:34 UTC)

Sääennuste

Tämä raportti tehtiin 6 tuntia ja 34 minuuttia sitten, kello 05.00 UTC
Ennuste voimassa 19. päivästä klo 06 UTC - 20. päivään klo 06 UTC
Tuuli 12 kn idästä/koillisesta
Näkyvyys: 8000 m
Muutamia pilviä 1800 ft:n korkeudessa
Hajanaisia pilviä 2500 ft:n korkeudessa

TAF: HLLM 190500Z 1906/2006 06012KT 8000 FEW018 SCT025

Säähavainnot ja -ennusteet yli 4000 lentoasemalta (METAR- ja TAF-raportit).

Käytössä olevat sääasemat on merkitty karttaan keltaisilla ja punaisilla pisteillä.

Aseta hiiri pisteen päälle nähdäksesi sääaseman nimen.

Klikkaa sitten nähdäksesi säähavainnot ja -ennusteet.

Kartan vaihtaminen: klikkaa mustalla rastilla varustettuja vihreitä pisteitä, niin voit zoomata sisään; viivalla varustettua vihreää pistettä, niin voit zoomata ulos tai vihreitä nuolia, niin pääset viereisille kartoille.


METAR-TAF: